sensor_id;sensor_type;location;lat;lon;timestamp;temperature;humidity
40516;DHT22;26216;53.724;9.898;2023-03-01T00:01:07;2.20;93.20
40516;DHT22;26216;53.724;9.898;2023-03-01T00:03:52;2.20;93.20
40516;DHT22;26216;53.724;9.898;2023-03-01T00:06:37;2.10;93.10
40516;DHT22;26216;53.724;9.898;2023-03-01T00:09:22;2.10;93.20
40516;DHT22;26216;53.724;9.898;2023-03-01T00:12:06;2.10;93.20
40516;DHT22;26216;53.724;9.898;2023-03-01T00:14:51;2.10;93.20
40516;DHT22;26216;53.724;9.898;2023-03-01T00:17:36;2.10;93.20
40516;DHT22;26216;53.724;9.898;2023-03-01T00:20:20;2.10;93.30
40516;DHT22;26216;53.724;9.898;2023-03-01T00:23:04;2.10;93.30
40516;DHT22;26216;53.724;9.898;2023-03-01T00:25:49;2.10;93.30
40516;DHT22;26216;53.724;9.898;2023-03-01T00:28:34;2.00;93.30
40516;DHT22;26216;53.724;9.898;2023-03-01T00:31:21;2.00;93.30
40516;DHT22;26216;53.724;9.898;2023-03-01T00:34:06;2.00;93.30
40516;DHT22;26216;53.724;9.898;2023-03-01T00:36:50;2.00;93.30
40516;DHT22;26216;53.724;9.898;2023-03-01T00:39:34;2.00;93.30
40516;DHT22;26216;53.724;9.898;2023-03-01T00:42:19;2.00;93.30
40516;DHT22;26216;53.724;9.898;2023-03-01T00:45:03;1.90;93.40
40516;DHT22;26216;53.724;9.898;2023-03-01T00:47:49;2.00;93.40
40516;DHT22;26216;53.724;9.898;2023-03-01T00:50:33;1.90;93.50
40516;DHT22;26216;53.724;9.898;2023-03-01T00:53:17;1.90;93.50
40516;DHT22;26216;53.724;9.898;2023-03-01T00:55:43;1.90;93.50
40516;DHT22;26216;53.724;9.898;2023-03-01T00:58:08;1.90;93.50
40516;DHT22;26216;53.724;9.898;2023-03-01T01:00:34;1.90;93.60
40516;DHT22;26216;53.724;9.898;2023-03-01T01:03:00;1.90;93.60
40516;DHT22;26216;53.724;9.898;2023-03-01T01:05:26;1.90;93.60
40516;DHT22;26216;53.724;9.898;2023-03-01T01:07:52;1.90;93.70
40516;DHT22;26216;53.724;9.898;2023-03-01T01:10:18;1.90;93.70
40516;DHT22;26216;53.724;9.898;2023-03-01T01:12:45;1.90;93.70
40516;DHT22;26216;53.724;9.898;2023-03-01T01:15:11;1.90;93.70
40516;DHT22;26216;53.724;9.898;2023-03-01T01:17:40;1.90;93.80
40516;DHT22;26216;53.724;9.898;2023-03-01T01:20:09;1.90;93.80
40516;DHT22;26216;53.724;9.898;2023-03-01T01:22:35;1.90;93.80
40516;DHT22;26216;53.724;9.898;2023-03-01T01:25:01;1.90;93.80
40516;DHT22;26216;53.724;9.898;2023-03-01T01:27:26;1.90;93.80
40516;DHT22;26216;53.724;9.898;2023-03-01T01:29:55;1.90;93.80
40516;DHT22;26216;53.724;9.898;2023-03-01T01:32:22;1.90;93.80
40516;DHT22;26216;53.724;9.898;2023-03-01T01:34:48;1.90;93.80
40516;DHT22;26216;53.724;9.898;2023-03-01T01:37:14;1.90;93.90
40516;DHT22;26216;53.724;9.898;2023-03-01T01:39:40;1.90;93.90
40516;DHT22;26216;53.724;9.898;2023-03-01T01:42:06;1.90;93.90
40516;DHT22;26216;53.724;9.898;2023-03-01T01:44:33;1.90;93.90
40516;DHT22;26216;53.724;9.898;2023-03-01T01:47:07;1.90;93.90
40516;DHT22;26216;53.724;9.898;2023-03-01T01:49:46;1.90;93.90
40516;DHT22;26216;53.724;9.898;2023-03-01T01:52:24;1.80;93.90
40516;DHT22;26216;53.724;9.898;2023-03-01T01:55:11;1.90;93.90
40516;DHT22;26216;53.724;9.898;2023-03-01T01:57:51;1.80;93.90
40516;DHT22;26216;53.724;9.898;2023-03-01T02:00:23;1.80;93.90
40516;DHT22;26216;53.724;9.898;2023-03-01T02:03:00;1.80;93.80
40516;DHT22;26216;53.724;9.898;2023-03-01T02:08:16;1.80;93.80
40516;DHT22;26216;53.724;9.898;2023-03-01T02:10:44;1.80;93.90
40516;DHT22;26216;53.724;9.898;2023-03-01T02:13:10;1.80;93.90
40516;DHT22;26216;53.724;9.898;2023-03-01T02:15:38;1.70;93.90
40516;DHT22;26216;53.724;9.898;2023-03-01T02:18:07;1.70;93.90
40516;DHT22;26216;53.724;9.898;2023-03-01T02:23:23;1.70;94.00
40516;DHT22;26216;53.724;9.898;2023-03-01T02:26:09;1.70;94.00
40516;DHT22;26216;53.724;9.898;2023-03-01T02:28:38;1.70;93.90
40516;DHT22;26216;53.724;9.898;2023-03-01T02:31:07;1.60;93.80
40516;DHT22;26216;53.724;9.898;2023-03-01T02:33:53;1.60;93.90
40516;DHT22;26216;53.724;9.898;2023-03-01T02:36:24;1.60;93.90
40516;DHT22;26216;53.724;9.898;2023-03-01T02:38:53;1.60;94.00
40516;DHT22;26216;53.724;9.898;2023-03-01T02:41:22;1.60;94.00
40516;DHT22;26216;53.724;9.898;2023-03-01T02:43:48;1.60;94.00
40516;DHT22;26216;53.724;9.898;2023-03-01T02:46:21;1.50;94.00
40516;DHT22;26216;53.724;9.898;2023-03-01T02:48:54;1.60;94.10
40516;DHT22;26216;53.724;9.898;2023-03-01T02:56:41;1.50;94.10
40516;DHT22;26216;53.724;9.898;2023-03-01T02:59:09;1.50;94.10
40516;DHT22;26216;53.724;9.898;2023-03-01T03:01:35;1.50;94.10
40516;DHT22;26216;53.724;9.898;2023-03-01T03:04:11;1.50;94.10
40516;DHT22;26216;53.724;9.898;2023-03-01T03:06:44;1.50;94.10
40516;DHT22;26216;53.724;9.898;2023-03-01T03:09:11;1.50;94.10
40516;DHT22;26216;53.724;9.898;2023-03-01T03:11:36;1.50;94.10
40516;DHT22;26216;53.724;9.898;2023-03-01T03:14:05;1.50;94.10
40516;DHT22;26216;53.724;9.898;2023-03-01T03:16:31;1.40;94.10
40516;DHT22;26216;53.724;9.898;2023-03-01T03:18:57;1.50;94.20
40516;DHT22;26216;53.724;9.898;2023-03-01T03:21:31;1.50;94.30
40516;DHT22;26216;53.724;9.898;2023-03-01T03:23:58;1.50;94.30
40516;DHT22;26216;53.724;9.898;2023-03-01T03:26:24;1.50;94.30
40516;DHT22;26216;53.724;9.898;2023-03-01T03:28:50;1.50;94.40
40516;DHT22;26216;53.724;9.898;2023-03-01T03:31:16;1.50;94.40
40516;DHT22;26216;53.724;9.898;2023-03-01T03:33:41;1.50;94.50
40516;DHT22;26216;53.724;9.898;2023-03-01T03:36:08;1.60;94.60
40516;DHT22;26216;53.724;9.898;2023-03-01T03:38:39;1.60;94.60
40516;DHT22;26216;53.724;9.898;2023-03-01T03:41:07;1.60;94.60
40516;DHT22;26216;53.724;9.898;2023-03-01T03:43:35;1.60;94.70
40516;DHT22;26216;53.724;9.898;2023-03-01T03:46:02;1.70;94.70
40516;DHT22;26216;53.724;9.898;2023-03-01T03:48:44;1.70;94.70
40516;DHT22;26216;53.724;9.898;2023-03-01T03:51:12;1.70;94.80
40516;DHT22;26216;53.724;9.898;2023-03-01T03:53:38;1.70;94.70
40516;DHT22;26216;53.724;9.898;2023-03-01T03:56:04;1.70;94.70
40516;DHT22;26216;53.724;9.898;2023-03-01T03:58:30;1.70;94.70
40516;DHT22;26216;53.724;9.898;2023-03-01T04:00:56;1.70;94.70
40516;DHT22;26216;53.724;9.898;2023-03-01T04:03:24;1.70;94.70
40516;DHT22;26216;53.724;9.898;2023-03-01T04:05:50;1.70;94.70
40516;DHT22;26216;53.724;9.898;2023-03-01T04:08:21;1.70;94.60
40516;DHT22;26216;53.724;9.898;2023-03-01T04:10:49;1.70;94.60
40516;DHT22;26216;53.724;9.898;2023-03-01T04:13:18;1.70;94.60
40516;DHT22;26216;53.724;9.898;2023-03-01T04:15:46;1.70;94.60
40516;DHT22;26216;53.724;9.898;2023-03-01T04:18:14;1.60;94.60
40516;DHT22;26216;53.724;9.898;2023-03-01T04:20:41;1.60;94.60
40516;DHT22;26216;53.724;9.898;2023-03-01T04:23:10;1.70;94.70
40516;DHT22;26216;53.724;9.898;2023-03-01T04:26:11;1.60;94.70
40516;DHT22;26216;53.724;9.898;2023-03-01T04:28:38;1.60;94.70
40516;DHT22;26216;53.724;9.898;2023-03-01T04:31:14;1.70;94.70
40516;DHT22;26216;53.724;9.898;2023-03-01T04:34:00;1.60;94.80
40516;DHT22;26216;53.724;9.898;2023-03-01T04:36:27;1.70;94.90
40516;DHT22;26216;53.724;9.898;2023-03-01T04:38:54;1.70;94.90
40516;DHT22;26216;53.724;9.898;2023-03-01T04:41:23;1.70;94.90
40516;DHT22;26216;53.724;9.898;2023-03-01T04:43:49;1.70;95.00
40516;DHT22;26216;53.724;9.898;2023-03-01T04:46:18;1.70;95.00
40516;DHT22;26216;53.724;9.898;2023-03-01T04:48:44;1.70;95.10
40516;DHT22;26216;53.724;9.898;2023-03-01T04:51:11;1.80;95.20
40516;DHT22;26216;53.724;9.898;2023-03-01T04:53:41;1.80;95.20
40516;DHT22;26216;53.724;9.898;2023-03-01T04:56:07;1.80;95.20
40516;DHT22;26216;53.724;9.898;2023-03-01T04:58:32;1.80;95.20
40516;DHT22;26216;53.724;9.898;2023-03-01T05:00:58;1.80;95.30
40516;DHT22;26216;53.724;9.898;2023-03-01T05:03:24;1.90;95.30
40516;DHT22;26216;53.724;9.898;2023-03-01T05:05:51;1.90;95.40
40516;DHT22;26216;53.724;9.898;2023-03-01T05:08:18;1.90;95.60
40516;DHT22;26216;53.724;9.898;2023-03-01T05:10:45;2.00;95.50
40516;DHT22;26216;53.724;9.898;2023-03-01T05:13:13;2.00;95.50
40516;DHT22;26216;53.724;9.898;2023-03-01T05:15:40;2.00;95.60
40516;DHT22;26216;53.724;9.898;2023-03-01T05:18:06;2.10;95.60
40516;DHT22;26216;53.724;9.898;2023-03-01T05:20:37;2.10;95.70
40516;DHT22;26216;53.724;9.898;2023-03-01T05:23:03;2.20;95.80
40516;DHT22;26216;53.724;9.898;2023-03-01T05:25:34;2.20;95.80
40516;DHT22;26216;53.724;9.898;2023-03-01T05:28:02;2.20;95.80
40516;DHT22;26216;53.724;9.898;2023-03-01T05:30:31;2.30;95.80
40516;DHT22;26216;53.724;9.898;2023-03-01T05:32:58;2.30;95.90
40516;DHT22;26216;53.724;9.898;2023-03-01T05:35:24;2.30;95.90
40516;DHT22;26216;53.724;9.898;2023-03-01T05:37:51;2.40;95.90
40516;DHT22;26216;53.724;9.898;2023-03-01T05:40:19;2.40;96.00
40516;DHT22;26216;53.724;9.898;2023-03-01T05:42:51;2.40;96.00
40516;DHT22;26216;53.724;9.898;2023-03-01T05:45:18;2.40;95.90
40516;DHT22;26216;53.724;9.898;2023-03-01T05:47:45;2.40;96.00
40516;DHT22;26216;53.724;9.898;2023-03-01T05:50:17;2.50;96.10
40516;DHT22;26216;53.724;9.898;2023-03-01T05:52:49;2.50;96.00
40516;DHT22;26216;53.724;9.898;2023-03-01T05:55:19;2.40;96.00
40516;DHT22;26216;53.724;9.898;2023-03-01T05:57:45;2.50;96.20
40516;DHT22;26216;53.724;9.898;2023-03-01T06:00:13;2.50;96.00
40516;DHT22;26216;53.724;9.898;2023-03-01T06:02:39;2.40;96.10
40516;DHT22;26216;53.724;9.898;2023-03-01T06:05:06;2.40;96.40
40516;DHT22;26216;53.724;9.898;2023-03-01T06:07:33;2.40;96.00
40516;DHT22;26216;53.724;9.898;2023-03-01T06:09:59;2.30;95.90
40516;DHT22;26216;53.724;9.898;2023-03-01T06:12:24;2.30;95.90
40516;DHT22;26216;53.724;9.898;2023-03-01T06:14:50;2.30;96.00
40516;DHT22;26216;53.724;9.898;2023-03-01T06:17:16;2.20;95.90
40516;DHT22;26216;53.724;9.898;2023-03-01T06:19:42;2.20;95.90
40516;DHT22;26216;53.724;9.898;2023-03-01T06:22:08;2.20;95.90
40516;DHT22;26216;53.724;9.898;2023-03-01T06:24:34;2.20;95.90
40516;DHT22;26216;53.724;9.898;2023-03-01T06:27:00;2.20;95.90
40516;DHT22;26216;53.724;9.898;2023-03-01T06:29:26;2.20;95.90
40516;DHT22;26216;53.724;9.898;2023-03-01T06:31:51;2.10;95.80
40516;DHT22;26216;53.724;9.898;2023-03-01T06:34:17;2.10;95.80
40516;DHT22;26216;53.724;9.898;2023-03-01T06:36:43;2.10;95.90
40516;DHT22;26216;53.724;9.898;2023-03-01T06:39:09;2.10;95.90
40516;DHT22;26216;53.724;9.898;2023-03-01T06:41:35;2.10;96.10
40516;DHT22;26216;53.724;9.898;2023-03-01T06:44:01;2.10;96.00
40516;DHT22;26216;53.724;9.898;2023-03-01T06:46:28;2.10;96.10
40516;DHT22;26216;53.724;9.898;2023-03-01T06:48:54;2.10;96.10
40516;DHT22;26216;53.724;9.898;2023-03-01T06:51:19;2.10;96.20
40516;DHT22;26216;53.724;9.898;2023-03-01T06:53:46;2.20;96.30
40516;DHT22;26216;53.724;9.898;2023-03-01T06:56:12;2.20;96.40
40516;DHT22;26216;53.724;9.898;2023-03-01T06:58:38;2.20;96.40
40516;DHT22;26216;53.724;9.898;2023-03-01T07:01:08;2.30;96.50
40516;DHT22;26216;53.724;9.898;2023-03-01T07:03:34;2.40;96.70
40516;DHT22;26216;53.724;9.898;2023-03-01T07:05:59;2.40;96.80
40516;DHT22;26216;53.724;9.898;2023-03-01T07:08:26;2.40;96.80
40516;DHT22;26216;53.724;9.898;2023-03-01T07:10:58;2.50;96.80
40516;DHT22;26216;53.724;9.898;2023-03-01T07:13:27;2.60;96.80
40516;DHT22;26216;53.724;9.898;2023-03-01T07:15:53;2.60;97.20
40516;DHT22;26216;53.724;9.898;2023-03-01T07:18:19;2.60;97.00
40516;DHT22;26216;53.724;9.898;2023-03-01T07:20:45;2.70;97.10
40516;DHT22;26216;53.724;9.898;2023-03-01T07:23:11;2.70;97.20
40516;DHT22;26216;53.724;9.898;2023-03-01T07:25:36;2.70;97.10
40516;DHT22;26216;53.724;9.898;2023-03-01T07:28:02;2.80;97.20
40516;DHT22;26216;53.724;9.898;2023-03-01T07:30:28;2.80;97.60
40516;DHT22;26216;53.724;9.898;2023-03-01T07:32:55;2.80;97.70
40516;DHT22;26216;53.724;9.898;2023-03-01T07:35:22;2.80;98.00
40516;DHT22;26216;53.724;9.898;2023-03-01T07:37:48;2.80;98.40
40516;DHT22;26216;53.724;9.898;2023-03-01T07:40:14;2.70;98.10
40516;DHT22;26216;53.724;9.898;2023-03-01T07:42:39;2.70;98.30
40516;DHT22;26216;53.724;9.898;2023-03-01T07:45:06;2.70;98.20
40516;DHT22;26216;53.724;9.898;2023-03-01T07:47:32;2.70;98.40
40516;DHT22;26216;53.724;9.898;2023-03-01T07:49:58;2.70;98.60
40516;DHT22;26216;53.724;9.898;2023-03-01T07:52:24;2.70;98.80
40516;DHT22;26216;53.724;9.898;2023-03-01T07:54:50;2.70;98.80
40516;DHT22;26216;53.724;9.898;2023-03-01T07:57:16;2.70;99.20
40516;DHT22;26216;53.724;9.898;2023-03-01T07:59:42;2.70;99.10
40516;DHT22;26216;53.724;9.898;2023-03-01T08:02:09;2.70;99.70
40516;DHT22;26216;53.724;9.898;2023-03-01T08:04:35;2.70;99.90
40516;DHT22;26216;53.724;9.898;2023-03-01T08:07:01;2.70;99.90
40516;DHT22;26216;53.724;9.898;2023-03-01T08:09:27;2.60;99.90
40516;DHT22;26216;53.724;9.898;2023-03-01T08:11:52;2.60;99.90
40516;DHT22;26216;53.724;9.898;2023-03-01T08:14:19;2.60;99.90
40516;DHT22;26216;53.724;9.898;2023-03-01T08:16:45;2.70;99.90
40516;DHT22;26216;53.724;9.898;2023-03-01T08:19:13;2.70;99.90
40516;DHT22;26216;53.724;9.898;2023-03-01T08:21:39;2.70;99.90
40516;DHT22;26216;53.724;9.898;2023-03-01T08:24:06;2.80;99.90
40516;DHT22;26216;53.724;9.898;2023-03-01T08:26:33;2.80;99.90
40516;DHT22;26216;53.724;9.898;2023-03-01T08:28:59;2.90;99.90
40516;DHT22;26216;53.724;9.898;2023-03-01T08:31:37;2.90;99.90
40516;DHT22;26216;53.724;9.898;2023-03-01T08:34:09;3.00;99.90
40516;DHT22;26216;53.724;9.898;2023-03-01T08:36:41;3.00;99.90
40516;DHT22;26216;53.724;9.898;2023-03-01T08:39:09;3.10;99.90
40516;DHT22;26216;53.724;9.898;2023-03-01T08:41:35;3.20;99.90
40516;DHT22;26216;53.724;9.898;2023-03-01T08:44:01;3.20;99.90
40516;DHT22;26216;53.724;9.898;2023-03-01T08:46:28;3.30;99.90
40516;DHT22;26216;53.724;9.898;2023-03-01T08:48:55;3.40;99.90
40516;DHT22;26216;53.724;9.898;2023-03-01T08:51:22;3.40;99.90
40516;DHT22;26216;53.724;9.898;2023-03-01T08:53:48;3.40;99.90
40516;DHT22;26216;53.724;9.898;2023-03-01T08:56:15;3.50;99.90
40516;DHT22;26216;53.724;9.898;2023-03-01T08:58:44;3.50;99.90
40516;DHT22;26216;53.724;9.898;2023-03-01T09:01:12;3.50;99.90
40516;DHT22;26216;53.724;9.898;2023-03-01T09:03:39;3.60;99.90
40516;DHT22;26216;53.724;9.898;2023-03-01T09:06:06;3.60;99.90
40516;DHT22;26216;53.724;9.898;2023-03-01T09:08:41;3.60;99.90
40516;DHT22;26216;53.724;9.898;2023-03-01T09:11:09;3.60;99.90
40516;DHT22;26216;53.724;9.898;2023-03-01T09:13:35;3.70;99.90
40516;DHT22;26216;53.724;9.898;2023-03-01T09:16:03;3.70;99.90
40516;DHT22;26216;53.724;9.898;2023-03-01T09:18:29;3.80;99.90
40516;DHT22;26216;53.724;9.898;2023-03-01T09:21:06;3.80;99.90
40516;DHT22;26216;53.724;9.898;2023-03-01T09:23:36;3.80;99.90
40516;DHT22;26216;53.724;9.898;2023-03-01T09:26:07;3.80;99.90
40516;DHT22;26216;53.724;9.898;2023-03-01T09:28:35;3.80;99.90
40516;DHT22;26216;53.724;9.898;2023-03-01T09:31:02;3.80;99.90
40516;DHT22;26216;53.724;9.898;2023-03-01T09:33:30;3.80;99.90
40516;DHT22;26216;53.724;9.898;2023-03-01T09:36:04;3.80;99.90
40516;DHT22;26216;53.724;9.898;2023-03-01T09:38:30;3.80;99.90
40516;DHT22;26216;53.724;9.898;2023-03-01T09:40:56;3.80;99.90
40516;DHT22;26216;53.724;9.898;2023-03-01T09:46:00;3.90;99.90
40516;DHT22;26216;53.724;9.898;2023-03-01T09:48:33;3.90;99.90
40516;DHT22;26216;53.724;9.898;2023-03-01T09:51:06;4.00;99.90
40516;DHT22;26216;53.724;9.898;2023-03-01T09:53:34;4.00;99.90
40516;DHT22;26216;53.724;9.898;2023-03-01T09:56:19;4.00;99.90
40516;DHT22;26216;53.724;9.898;2023-03-01T09:58:54;4.00;99.90
40516;DHT22;26216;53.724;9.898;2023-03-01T10:01:34;4.10;99.90
40516;DHT22;26216;53.724;9.898;2023-03-01T10:06:32;4.20;99.90
40516;DHT22;26216;53.724;9.898;2023-03-01T10:09:21;4.20;99.90
40516;DHT22;26216;53.724;9.898;2023-03-01T10:11:51;4.20;99.90
40516;DHT22;26216;53.724;9.898;2023-03-01T10:14:36;4.30;99.90
40516;DHT22;26216;53.724;9.898;2023-03-01T10:17:19;4.30;99.90
40516;DHT22;26216;53.724;9.898;2023-03-01T10:19:46;4.40;99.90
40516;DHT22;26216;53.724;9.898;2023-03-01T10:22:31;4.40;99.90
40516;DHT22;26216;53.724;9.898;2023-03-01T10:24:59;4.50;99.90
40516;DHT22;26216;53.724;9.898;2023-03-01T10:27:46;4.50;99.90
40516;DHT22;26216;53.724;9.898;2023-03-01T10:30:26;4.60;99.90
40516;DHT22;26216;53.724;9.898;2023-03-01T10:32:56;4.60;99.90
40516;DHT22;26216;53.724;9.898;2023-03-01T10:35:28;4.70;99.90
40516;DHT22;26216;53.724;9.898;2023-03-01T10:38:10;4.70;99.90
40516;DHT22;26216;53.724;9.898;2023-03-01T10:40:37;4.80;99.90
40516;DHT22;26216;53.724;9.898;2023-03-01T10:43:15;4.80;99.90
40516;DHT22;26216;53.724;9.898;2023-03-01T10:45:41;4.90;99.90
40516;DHT22;26216;53.724;9.898;2023-03-01T10:48:19;5.00;99.90
40516;DHT22;26216;53.724;9.898;2023-03-01T10:51:04;5.00;99.90
40516;DHT22;26216;53.724;9.898;2023-03-01T10:53:35;5.00;99.90
40516;DHT22;26216;53.724;9.898;2023-03-01T10:56:10;5.00;99.90
40516;DHT22;26216;53.724;9.898;2023-03-01T10:58:41;5.10;99.90
40516;DHT22;26216;53.724;9.898;2023-03-01T11:03:40;5.10;99.90
40516;DHT22;26216;53.724;9.898;2023-03-01T11:11:30;5.30;99.90
40516;DHT22;26216;53.724;9.898;2023-03-01T11:14:12;5.40;99.90
40516;DHT22;26216;53.724;9.898;2023-03-01T11:16:43;5.40;99.90
40516;DHT22;26216;53.724;9.898;2023-03-01T11:21:49;5.60;99.90
40516;DHT22;26216;53.724;9.898;2023-03-01T11:24:17;5.60;99.90
40516;DHT22;26216;53.724;9.898;2023-03-01T11:26:54;5.70;99.90
40516;DHT22;26216;53.724;9.898;2023-03-01T11:29:41;5.70;99.90
40516;DHT22;26216;53.724;9.898;2023-03-01T11:32:11;5.80;99.90
40516;DHT22;26216;53.724;9.898;2023-03-01T11:34:53;5.80;99.90
40516;DHT22;26216;53.724;9.898;2023-03-01T11:40:17;6.00;99.90
40516;DHT22;26216;53.724;9.898;2023-03-01T11:42:46;6.00;99.90
40516;DHT22;26216;53.724;9.898;2023-03-01T11:45:13;6.10;99.90
40516;DHT22;26216;53.724;9.898;2023-03-01T11:50:44;6.10;99.90
40516;DHT22;26216;53.724;9.898;2023-03-01T11:53:20;6.10;99.90
40516;DHT22;26216;53.724;9.898;2023-03-01T12:07:20;6.40;99.90
40516;DHT22;26216;53.724;9.898;2023-03-01T12:13:26;6.60;99.90
40516;DHT22;26216;53.724;9.898;2023-03-01T12:16:23;6.60;99.90
40516;DHT22;26216;53.724;9.898;2023-03-01T12:35:25;6.60;99.90
40516;DHT22;26216;53.724;9.898;2023-03-01T12:42:04;6.60;99.90
40516;DHT22;26216;53.724;9.898;2023-03-01T12:50:19;6.70;99.90
40516;DHT22;26216;53.724;9.898;2023-03-01T12:52:52;6.70;99.90
40516;DHT22;26216;53.724;9.898;2023-03-01T12:55:34;6.70;99.90
40516;DHT22;26216;53.724;9.898;2023-03-01T13:06:20;6.90;99.90
40516;DHT22;26216;53.724;9.898;2023-03-01T13:08:49;6.90;99.90
40516;DHT22;26216;53.724;9.898;2023-03-01T13:11:23;6.90;99.90
40516;DHT22;26216;53.724;9.898;2023-03-01T13:13:49;6.90;99.90
40516;DHT22;26216;53.724;9.898;2023-03-01T13:19:27;7.00;99.90
40516;DHT22;26216;53.724;9.898;2023-03-01T13:21:55;7.10;99.90
40516;DHT22;26216;53.724;9.898;2023-03-01T13:24:38;7.10;99.90
40516;DHT22;26216;53.724;9.898;2023-03-01T13:29:59;7.20;99.90
40516;DHT22;26216;53.724;9.898;2023-03-01T13:32:33;7.30;99.90
40516;DHT22;26216;53.724;9.898;2023-03-01T13:37:41;7.40;99.90
40516;DHT22;26216;53.724;9.898;2023-03-01T13:42:45;7.40;99.90
40516;DHT22;26216;53.724;9.898;2023-03-01T13:45:40;7.50;99.90
40516;DHT22;26216;53.724;9.898;2023-03-01T13:48:22;7.60;99.90
40516;DHT22;26216;53.724;9.898;2023-03-01T13:50:54;7.60;99.90
40516;DHT22;26216;53.724;9.898;2023-03-01T13:53:26;7.70;99.90
40516;DHT22;26216;53.724;9.898;2023-03-01T13:56:02;7.70;99.90
40516;DHT22;26216;53.724;9.898;2023-03-01T13:58:59;7.70;99.90
40516;DHT22;26216;53.724;9.898;2023-03-01T14:01:32;7.80;99.90
40516;DHT22;26216;53.724;9.898;2023-03-01T14:04:01;7.80;99.90
40516;DHT22;26216;53.724;9.898;2023-03-01T14:06:30;7.90;99.90
40516;DHT22;26216;53.724;9.898;2023-03-01T14:09:16;7.90;99.90
40516;DHT22;26216;53.724;9.898;2023-03-01T14:19:26;8.10;99.90
40516;DHT22;26216;53.724;9.898;2023-03-01T14:24:40;8.20;99.90
40516;DHT22;26216;53.724;9.898;2023-03-01T14:27:11;8.30;99.90
40516;DHT22;26216;53.724;9.898;2023-03-01T14:29:39;8.30;99.90
40516;DHT22;26216;53.724;9.898;2023-03-01T14:32:18;8.30;99.60
40516;DHT22;26216;53.724;9.898;2023-03-01T14:34:47;8.40;99.80
40516;DHT22;26216;53.724;9.898;2023-03-01T14:37:32;8.50;99.80
40516;DHT22;26216;53.724;9.898;2023-03-01T14:40:00;8.50;99.60
40516;DHT22;26216;53.724;9.898;2023-03-01T14:42:31;8.60;99.20
40516;DHT22;26216;53.724;9.898;2023-03-01T14:45:01;8.60;99.20
40516;DHT22;26216;53.724;9.898;2023-03-01T14:47:31;8.70;98.70
40516;DHT22;26216;53.724;9.898;2023-03-01T14:50:26;8.70;98.80
40516;DHT22;26216;53.724;9.898;2023-03-01T14:52:59;8.70;98.70
40516;DHT22;26216;53.724;9.898;2023-03-01T14:55:30;8.80;98.70
40516;DHT22;26216;53.724;9.898;2023-03-01T14:57:57;8.80;98.50
40516;DHT22;26216;53.724;9.898;2023-03-01T15:00:28;8.80;98.50
40516;DHT22;26216;53.724;9.898;2023-03-01T15:02:56;8.80;98.30
40516;DHT22;26216;53.724;9.898;2023-03-01T15:05:30;8.80;97.20
40516;DHT22;26216;53.724;9.898;2023-03-01T15:08:01;8.80;97.50
40516;DHT22;26216;53.724;9.898;2023-03-01T15:10:30;8.80;97.40
40516;DHT22;26216;53.724;9.898;2023-03-01T15:13:22;8.80;97.50
40516;DHT22;26216;53.724;9.898;2023-03-01T15:15:50;8.90;97.50
40516;DHT22;26216;53.724;9.898;2023-03-01T15:18:19;8.90;97.40
40516;DHT22;26216;53.724;9.898;2023-03-01T15:20:47;8.80;96.90
40516;DHT22;26216;53.724;9.898;2023-03-01T15:25:49;8.80;96.70
40516;DHT22;26216;53.724;9.898;2023-03-01T15:28:28;8.80;96.70
40516;DHT22;26216;53.724;9.898;2023-03-01T15:31:23;8.80;96.50
40516;DHT22;26216;53.724;9.898;2023-03-01T15:33:49;8.80;96.80
40516;DHT22;26216;53.724;9.898;2023-03-01T15:39:00;8.80;96.60
40516;DHT22;26216;53.724;9.898;2023-03-01T15:41:28;8.80;96.50
40516;DHT22;26216;53.724;9.898;2023-03-01T15:43:57;8.70;96.60
40516;DHT22;26216;53.724;9.898;2023-03-01T15:46:29;8.70;96.80
40516;DHT22;26216;53.724;9.898;2023-03-01T15:48:59;8.70;96.70
40516;DHT22;26216;53.724;9.898;2023-03-01T15:51:36;8.70;96.80
40516;DHT22;26216;53.724;9.898;2023-03-01T15:54:13;8.70;96.80
40516;DHT22;26216;53.724;9.898;2023-03-01T15:56:41;8.60;96.20
40516;DHT22;26216;53.724;9.898;2023-03-01T15:59:10;8.50;96.40
40516;DHT22;26216;53.724;9.898;2023-03-01T16:01:39;8.50;96.40
40516;DHT22;26216;53.724;9.898;2023-03-01T16:04:05;8.50;96.20
40516;DHT22;26216;53.724;9.898;2023-03-01T16:06:32;8.40;96.40
40516;DHT22;26216;53.724;9.898;2023-03-01T16:08:58;8.40;96.30
40516;DHT22;26216;53.724;9.898;2023-03-01T16:11:24;8.40;96.40
40516;DHT22;26216;53.724;9.898;2023-03-01T16:13:53;8.30;96.50
40516;DHT22;26216;53.724;9.898;2023-03-01T16:16:19;8.20;96.50
40516;DHT22;26216;53.724;9.898;2023-03-01T16:18:46;8.20;96.60
40516;DHT22;26216;53.724;9.898;2023-03-01T16:21:23;8.20;96.60
40516;DHT22;26216;53.724;9.898;2023-03-01T16:23:50;8.10;96.60
40516;DHT22;26216;53.724;9.898;2023-03-01T16:26:17;8.10;96.70
40516;DHT22;26216;53.724;9.898;2023-03-01T16:28:44;8.10;96.80
40516;DHT22;26216;53.724;9.898;2023-03-01T16:31:11;8.00;96.80
40516;DHT22;26216;53.724;9.898;2023-03-01T16:33:37;8.00;96.90
40516;DHT22;26216;53.724;9.898;2023-03-01T16:36:09;7.90;96.90
40516;DHT22;26216;53.724;9.898;2023-03-01T16:38:35;7.90;97.00
40516;DHT22;26216;53.724;9.898;2023-03-01T16:41:01;7.80;97.00
40516;DHT22;26216;53.724;9.898;2023-03-01T16:43:27;7.80;97.00
40516;DHT22;26216;53.724;9.898;2023-03-01T16:45:53;7.70;97.10
40516;DHT22;26216;53.724;9.898;2023-03-01T16:48:22;7.70;97.10
40516;DHT22;26216;53.724;9.898;2023-03-01T16:50:59;7.60;97.20
40516;DHT22;26216;53.724;9.898;2023-03-01T16:53:27;7.60;97.40
40516;DHT22;26216;53.724;9.898;2023-03-01T16:55:55;7.50;97.40
40516;DHT22;26216;53.724;9.898;2023-03-01T16:58:21;7.50;97.40
40516;DHT22;26216;53.724;9.898;2023-03-01T17:00:51;7.40;97.40
40516;DHT22;26216;53.724;9.898;2023-03-01T17:03:20;7.40;97.30
40516;DHT22;26216;53.724;9.898;2023-03-01T17:05:47;7.30;97.30
40516;DHT22;26216;53.724;9.898;2023-03-01T17:08:13;7.20;97.50
40516;DHT22;26216;53.724;9.898;2023-03-01T17:10:39;7.20;97.50
40516;DHT22;26216;53.724;9.898;2023-03-01T17:13:08;7.10;97.60
40516;DHT22;26216;53.724;9.898;2023-03-01T17:15:37;7.00;97.70
40516;DHT22;26216;53.724;9.898;2023-03-01T17:18:04;7.00;97.60
40516;DHT22;26216;53.724;9.898;2023-03-01T17:20:30;6.90;97.80
40516;DHT22;26216;53.724;9.898;2023-03-01T17:22:56;6.80;97.80
40516;DHT22;26216;53.724;9.898;2023-03-01T17:25:22;6.80;97.80
40516;DHT22;26216;53.724;9.898;2023-03-01T17:27:48;6.70;97.90
40516;DHT22;26216;53.724;9.898;2023-03-01T17:30:14;6.70;97.90
40516;DHT22;26216;53.724;9.898;2023-03-01T17:32:40;6.60;98.00
40516;DHT22;26216;53.724;9.898;2023-03-01T17:35:07;6.50;98.20
40516;DHT22;26216;53.724;9.898;2023-03-01T17:37:36;6.50;98.30
40516;DHT22;26216;53.724;9.898;2023-03-01T17:40:05;6.40;98.10
40516;DHT22;26216;53.724;9.898;2023-03-01T17:42:31;6.40;98.00
40516;DHT22;26216;53.724;9.898;2023-03-01T17:44:57;6.30;98.00
40516;DHT22;26216;53.724;9.898;2023-03-01T17:47:23;6.30;98.10
40516;DHT22;26216;53.724;9.898;2023-03-01T17:49:50;6.20;98.10
40516;DHT22;26216;53.724;9.898;2023-03-01T17:52:15;6.20;98.20
40516;DHT22;26216;53.724;9.898;2023-03-01T17:54:41;6.10;98.10